createdAt,value
2018-06-25T00:00:22.079Z,99.90
2018-06-25T00:03:02.913Z,99.90
2018-06-25T00:05:41.840Z,99.90
2018-06-25T00:11:04.898Z,99.90
2018-06-25T00:13:45.308Z,99.90
2018-06-25T00:16:25.276Z,99.90
2018-06-25T00:19:07.008Z,99.90
2018-06-25T00:21:49.441Z,99.90
2018-06-25T00:24:29.680Z,99.90
2018-06-25T00:27:07.904Z,99.90
2018-06-25T00:29:50.391Z,99.90
2018-06-25T00:32:33.348Z,99.90
2018-06-25T00:35:13.225Z,99.90
2018-06-25T00:37:52.695Z,99.90
2018-06-25T00:40:32.826Z,99.90
2018-06-25T00:43:11.986Z,99.90
2018-06-25T00:45:51.968Z,99.90
2018-06-25T00:48:32.956Z,99.90
2018-06-25T00:51:14.286Z,99.90
2018-06-25T00:53:53.755Z,99.90
2018-06-25T00:56:33.789Z,99.90
2018-06-25T00:59:19.997Z,99.90
2018-06-25T01:02:01.531Z,99.90
2018-06-25T01:04:42.191Z,99.90
2018-06-25T01:07:23.415Z,99.90
2018-06-25T01:10:01.449Z,99.90
2018-06-25T01:12:42.101Z,99.90
2018-06-25T01:15:22.628Z,99.90
2018-06-25T01:18:01.068Z,99.90
2018-06-25T01:20:41.347Z,99.90
2018-06-25T01:23:21.556Z,99.90
2018-06-25T01:26:02.138Z,99.90
2018-06-25T01:28:39.748Z,99.90
2018-06-25T01:31:19.231Z,99.90
2018-06-25T01:33:58.200Z,99.90
2018-06-25T01:36:37.893Z,99.90
2018-06-25T01:39:16.058Z,99.90
2018-06-25T01:44:39.436Z,99.90
2018-06-25T01:47:21.162Z,99.90
2018-06-25T01:49:59.425Z,99.90
2018-06-25T01:52:38.653Z,99.90
2018-06-25T01:58:00.258Z,99.90
2018-06-25T02:00:40.451Z,99.90
2018-06-25T02:03:21.453Z,99.90
2018-06-25T02:05:59.122Z,99.90
2018-06-25T02:08:39.032Z,99.90
2018-06-25T02:14:01.147Z,99.90
2018-06-25T02:16:44.127Z,99.90
2018-06-25T02:19:24.513Z,99.90
2018-06-25T02:22:02.942Z,99.90
2018-06-25T02:24:42.491Z,99.90
2018-06-25T02:27:21.964Z,99.90
2018-06-25T02:30:02.774Z,99.90
2018-06-25T02:32:43.365Z,99.90
2018-06-25T02:35:24.268Z,99.90
2018-06-25T02:38:03.220Z,99.90
2018-06-25T02:40:42.247Z,99.90
2018-06-25T02:43:22.537Z,99.90
2018-06-25T02:46:02.378Z,99.90
2018-06-25T02:48:44.845Z,99.90
2018-06-25T02:51:23.697Z,99.90
2018-06-25T02:54:03.836Z,99.90
2018-06-25T02:56:43.075Z,99.90
2018-06-25T02:59:22.997Z,99.90
2018-06-25T03:04:45.682Z,99.90
2018-06-25T03:07:26.684Z,99.90
2018-06-25T03:10:06.758Z,99.90
2018-06-25T03:12:48.019Z,99.90
2018-06-25T03:15:27.953Z,99.90
2018-06-25T03:18:09.937Z,99.90
2018-06-25T03:20:50.300Z,99.90
2018-06-25T03:23:32.720Z,99.90
2018-06-25T03:28:54.601Z,99.90
2018-06-25T03:31:33.757Z,99.90
2018-06-25T03:34:13.569Z,99.90
2018-06-25T03:36:55.283Z,99.90
2018-06-25T03:39:35.639Z,99.90
2018-06-25T03:42:16.824Z,99.90
2018-06-25T03:44:57.367Z,99.90
2018-06-25T03:47:37.786Z,99.90
2018-06-25T03:50:17.909Z,99.90
2018-06-25T03:52:58.283Z,99.90
2018-06-25T03:55:37.542Z,99.90
2018-06-25T03:58:18.319Z,99.90
2018-06-25T04:00:58.424Z,99.90
2018-06-25T04:03:38.488Z,99.90
2018-06-25T04:06:17.039Z,99.90
2018-06-25T04:08:59.048Z,99.90
2018-06-25T04:11:38.851Z,99.90
2018-06-25T04:14:18.969Z,99.90
2018-06-25T04:16:57.805Z,99.90
2018-06-25T04:19:38.476Z,99.90
2018-06-25T04:22:16.559Z,99.90
2018-06-25T04:24:55.919Z,99.90
2018-06-25T04:27:35.776Z,99.90
2018-06-25T04:33:03.813Z,99.90
2018-06-25T04:35:44.265Z,99.90
2018-06-25T04:38:27.496Z,99.90
2018-06-25T04:41:05.738Z,99.90
2018-06-25T04:43:46.961Z,99.90
2018-06-25T04:46:27.767Z,99.90
2018-06-25T04:49:08.419Z,99.90
2018-06-25T04:51:48.362Z,99.90
2018-06-25T04:57:13.199Z,99.90
2018-06-25T04:59:56.551Z,99.90
2018-06-25T05:02:41.196Z,99.90
2018-06-25T05:05:20.638Z,99.90
2018-06-25T05:08:00.690Z,99.90
2018-06-25T05:10:41.550Z,99.90
2018-06-25T05:13:20.133Z,99.90
2018-06-25T05:15:58.286Z,99.90
2018-06-25T05:21:27.757Z,99.90
2018-06-25T05:24:09.594Z,99.90
2018-06-25T05:26:51.172Z,99.90
2018-06-25T05:32:14.075Z,99.90
2018-06-25T05:34:54.399Z,99.90
2018-06-25T05:40:18.970Z,99.90
2018-06-25T05:42:58.800Z,99.90
2018-06-25T05:48:26.094Z,99.90
2018-06-25T05:53:51.599Z,99.90
2018-06-25T05:56:31.238Z,99.90
2018-06-25T05:59:13.987Z,99.90
2018-06-25T06:01:54.735Z,99.90
2018-06-25T06:04:36.212Z,99.90
2018-06-25T06:07:19.797Z,99.90
2018-06-25T06:10:01.690Z,99.90
2018-06-25T06:12:40.966Z,99.90
2018-06-25T06:15:21.784Z,99.90
2018-06-25T06:18:02.170Z,99.90
2018-06-25T06:23:23.418Z,99.90
2018-06-25T06:28:43.764Z,99.90
2018-06-25T06:31:24.799Z,99.90
2018-06-25T06:34:07.756Z,99.90
2018-06-25T06:36:47.813Z,99.90
2018-06-25T06:39:29.290Z,99.90
2018-06-25T06:42:09.839Z,99.90
2018-06-25T06:44:48.714Z,99.90
2018-06-25T06:47:30.585Z,99.90
2018-06-25T06:50:12.390Z,99.90
2018-06-25T06:52:51.223Z,99.90
2018-06-25T06:55:34.143Z,99.90
2018-06-25T06:58:15.362Z,99.90
2018-06-25T07:09:08.719Z,99.90
2018-06-25T07:11:53.944Z,99.90
2018-06-25T07:14:36.660Z,99.90
2018-06-25T07:17:17.114Z,99.90
2018-06-25T07:19:57.162Z,99.90
2018-06-25T07:22:37.689Z,99.90
2018-06-25T07:28:03.750Z,99.90
2018-06-25T07:30:44.386Z,99.90
2018-06-25T07:33:28.160Z,99.90
2018-06-25T07:36:07.092Z,99.90
2018-06-25T07:38:47.862Z,99.90
2018-06-25T07:41:27.359Z,99.90
2018-06-25T07:44:05.893Z,99.90
2018-06-25T07:46:43.761Z,99.90
2018-06-25T07:49:24.455Z,99.90
2018-06-25T07:52:05.262Z,99.90
2018-06-25T07:57:30.904Z,99.90
2018-06-25T08:00:12.311Z,99.90
2018-06-25T08:02:52.871Z,99.90
2018-06-25T08:08:15.695Z,99.90
2018-06-25T08:10:55.261Z,99.90
2018-06-25T08:13:39.507Z,99.90
2018-06-25T08:16:17.988Z,99.90
2018-06-25T08:24:25.671Z,99.90
2018-06-25T08:27:00.809Z,99.90
2018-06-25T08:29:40.507Z,99.90
2018-06-25T08:35:02.750Z,99.90
2018-06-25T08:37:44.916Z,99.90
2018-06-25T08:40:25.381Z,99.90
2018-06-25T08:43:05.310Z,99.90
2018-06-25T08:51:11.466Z,99.90
2018-06-25T08:53:40.257Z,99.90
2018-06-25T08:56:08.082Z,99.90
2018-06-25T08:58:34.974Z,99.90
2018-06-25T09:01:02.515Z,99.90
2018-06-25T09:03:32.121Z,99.90
2018-06-25T09:06:01.686Z,99.90
2018-06-25T09:08:29.384Z,99.90
2018-06-25T09:10:57.182Z,99.90
2018-06-25T09:13:25.659Z,99.90
2018-06-25T09:15:53.721Z,99.90
2018-06-25T09:18:22.603Z,99.90
2018-06-25T09:20:50.930Z,99.90
2018-06-25T09:23:31.271Z,99.90
2018-06-25T09:25:59.452Z,99.90
2018-06-25T09:28:29.713Z,99.20
2018-06-25T09:30:58.477Z,98.90
2018-06-25T09:33:27.485Z,98.60
2018-06-25T09:35:55.387Z,98.60
2018-06-25T09:38:23.386Z,99.20
2018-06-25T09:40:51.343Z,98.40
2018-06-25T09:43:19.926Z,97.60
2018-06-25T09:45:47.997Z,97.70
2018-06-25T09:48:15.073Z,97.90
2018-06-25T09:50:42.809Z,97.40
2018-06-25T09:53:12.899Z,96.00
2018-06-25T09:55:41.079Z,95.30
2018-06-25T09:58:09.728Z,95.00
2018-06-25T10:00:36.713Z,94.90
2018-06-25T10:03:04.457Z,95.40
2018-06-25T10:05:32.771Z,95.40
2018-06-25T10:08:01.856Z,95.50
2018-06-25T10:10:29.854Z,95.10
2018-06-25T10:12:56.910Z,95.50
2018-06-25T10:15:23.781Z,95.00
2018-06-25T10:17:57.196Z,95.40
2018-06-25T10:20:25.606Z,95.80
2018-06-25T10:22:52.597Z,95.70
2018-06-25T10:25:19.554Z,95.40
2018-06-25T10:27:46.513Z,95.70
2018-06-25T10:30:14.221Z,94.30
2018-06-25T10:32:41.082Z,94.40
2018-06-25T10:35:08.014Z,92.80
2018-06-25T10:37:34.973Z,92.40
2018-06-25T10:40:01.925Z,92.50
2018-06-25T10:42:28.884Z,90.40
2018-06-25T10:44:55.922Z,90.50
2018-06-25T10:47:22.873Z,86.30
2018-06-25T10:49:49.750Z,83.60
2018-06-25T10:52:16.718Z,86.60
2018-06-25T10:54:43.694Z,87.10
2018-06-25T10:57:10.551Z,86.10
2018-06-25T10:59:37.678Z,88.50
2018-06-25T11:02:04.871Z,89.40
2018-06-25T11:04:31.749Z,89.20
2018-06-25T11:06:59.434Z,89.60
2018-06-25T11:09:26.472Z,89.60
2018-06-25T11:11:53.435Z,89.70
2018-06-25T11:14:20.322Z,87.70
2018-06-25T11:16:47.554Z,88.40
2018-06-25T11:19:14.532Z,88.70
2018-06-25T11:21:41.405Z,89.00
2018-06-25T11:24:15.453Z,87.30
2018-06-25T11:26:52.094Z,86.20
2018-06-25T11:29:19.871Z,83.50
2018-06-25T11:31:46.837Z,81.00
2018-06-25T11:34:16.276Z,81.50
2018-06-25T11:36:50.339Z,82.50
2018-06-25T11:39:17.350Z,82.10
2018-06-25T11:41:44.538Z,84.90
2018-06-25T11:44:11.482Z,81.10
2018-06-25T11:46:38.521Z,82.90
2018-06-25T11:49:05.428Z,83.80
2018-06-25T11:51:32.416Z,85.10
2018-06-25T11:53:59.472Z,86.50
2018-06-25T11:56:34.719Z,86.80
2018-06-25T11:59:01.712Z,84.90
2018-06-25T12:01:28.621Z,83.50
2018-06-25T12:03:55.519Z,85.10
2018-06-25T12:06:23.254Z,86.10
2018-06-25T12:08:50.105Z,86.10
2018-06-25T12:11:18.358Z,86.90
2018-06-25T12:13:46.539Z,86.90
2018-06-25T12:16:14.048Z,85.50
2018-06-25T12:18:40.988Z,85.10
2018-06-25T12:21:07.969Z,86.50
2018-06-25T12:23:45.366Z,85.70
2018-06-25T12:26:19.706Z,86.30
2018-06-25T12:28:47.680Z,85.60
2018-06-25T12:31:23.407Z,85.70
2018-06-25T12:34:00.507Z,84.10
2018-06-25T12:36:32.977Z,83.40
2018-06-25T12:39:08.057Z,81.70
2018-06-25T12:41:35.180Z,83.50
2018-06-25T12:44:12.855Z,83.20
2018-06-25T12:49:36.241Z,82.10
2018-06-25T12:52:18.515Z,79.60
2018-06-25T12:54:58.587Z,79.50
2018-06-25T12:57:39.696Z,80.10
2018-06-25T13:00:18.054Z,79.60
2018-06-25T13:02:45.817Z,78.70
2018-06-25T13:05:16.152Z,78.70
2018-06-25T13:07:45.116Z,78.60
2018-06-25T13:10:12.173Z,79.30
2018-06-25T13:12:39.090Z,79.50
2018-06-25T13:15:05.986Z,79.90
2018-06-25T13:17:33.720Z,79.80
2018-06-25T13:20:00.704Z,79.80
2018-06-25T13:22:27.605Z,79.80
2018-06-25T13:24:55.471Z,78.60
2018-06-25T13:27:23.624Z,78.90
2018-06-25T13:29:50.709Z,80.10
2018-06-25T13:32:29.798Z,79.70
2018-06-25T13:35:11.325Z,81.00
2018-06-25T13:37:39.284Z,81.40
2018-06-25T13:40:07.420Z,78.50
2018-06-25T13:42:34.431Z,79.40
2018-06-25T13:45:15.013Z,81.80
2018-06-25T13:47:42.010Z,80.70
2018-06-25T13:50:08.904Z,81.90
2018-06-25T13:52:35.831Z,82.70
2018-06-25T13:55:02.858Z,81.30
2018-06-25T13:57:31.058Z,80.00
2018-06-25T13:59:58.092Z,79.30
2018-06-25T14:02:27.568Z,77.20
2018-06-25T14:04:59.495Z,77.80
2018-06-25T14:07:31.211Z,76.10
2018-06-25T14:09:59.630Z,76.00
2018-06-25T14:12:28.140Z,74.80
2018-06-25T14:14:55.345Z,74.10
2018-06-25T14:17:22.343Z,74.60
2018-06-25T14:19:51.402Z,75.00
2018-06-25T14:22:20.297Z,74.80
2018-06-25T14:24:51.690Z,74.00
2018-06-25T14:27:18.706Z,74.90
2018-06-25T14:29:45.780Z,77.20
2018-06-25T14:32:12.771Z,76.10
2018-06-25T14:34:39.641Z,73.90
2018-06-25T14:37:07.971Z,75.80
2018-06-25T14:39:37.490Z,76.80
2018-06-25T14:42:04.676Z,74.50
2018-06-25T14:44:32.296Z,74.50
2018-06-25T14:46:59.233Z,74.50
2018-06-25T14:49:27.872Z,72.60
2018-06-25T14:51:54.950Z,74.60
2018-06-25T14:54:22.380Z,75.40
2018-06-25T14:56:51.248Z,74.40
2018-06-25T14:59:19.671Z,78.00
2018-06-25T15:01:50.668Z,76.00
2018-06-25T15:04:18.725Z,75.90
2018-06-25T15:06:52.716Z,76.90
2018-06-25T15:09:20.943Z,76.40
2018-06-25T15:11:48.620Z,72.90
2018-06-25T15:14:18.141Z,73.60
2018-06-25T15:16:47.446Z,72.70
2018-06-25T15:19:15.844Z,71.20
2018-06-25T15:21:44.462Z,72.50
2018-06-25T15:24:12.125Z,75.40
2018-06-25T15:26:39.541Z,74.60
2018-06-25T15:29:11.452Z,74.30
2018-06-25T15:31:40.530Z,75.20
2018-06-25T15:34:07.452Z,75.30
2018-06-25T15:36:34.410Z,72.00
2018-06-25T15:39:03.576Z,73.70
2018-06-25T15:41:30.552Z,73.80
2018-06-25T15:43:57.429Z,73.40
2018-06-25T15:46:24.500Z,72.80
2018-06-25T15:48:51.413Z,73.50
2018-06-25T15:51:18.484Z,74.60
2018-06-25T15:53:45.441Z,75.20
2018-06-25T15:56:26.156Z,76.20
2018-06-25T15:59:03.114Z,75.80
2018-06-25T16:01:30.502Z,75.80
2018-06-25T16:04:06.045Z,76.40
2018-06-25T16:06:42.374Z,76.00
2018-06-25T16:11:55.435Z,75.70
2018-06-25T16:14:23.605Z,74.70
2018-06-25T16:16:54.760Z,76.90
2018-06-25T16:19:38.047Z,76.50
2018-06-25T16:22:06.725Z,76.50
2018-06-25T16:24:35.749Z,76.30
2018-06-25T16:27:03.632Z,77.40
2018-06-25T16:29:45.184Z,77.40
2018-06-25T16:32:14.406Z,76.30
2018-06-25T16:34:41.852Z,77.40
2018-06-25T16:37:08.829Z,78.50
2018-06-25T16:39:42.962Z,78.70
2018-06-25T16:47:56.099Z,79.80
2018-06-25T16:50:38.702Z,79.60
2018-06-25T16:53:26.260Z,79.00
2018-06-25T16:56:13.172Z,79.30
2018-06-25T16:58:58.780Z,79.20
2018-06-25T17:01:27.121Z,80.20
2018-06-25T17:03:54.105Z,79.70
2018-06-25T17:06:21.041Z,79.80
2018-06-25T17:08:47.991Z,80.10
2018-06-25T17:11:14.957Z,81.00
2018-06-25T17:13:41.981Z,81.20
2018-06-25T17:16:08.941Z,81.40
2018-06-25T17:18:35.814Z,82.20
2018-06-25T17:21:03.460Z,82.40
2018-06-25T17:23:43.236Z,82.30
2018-06-25T17:26:23.596Z,82.30
2018-06-25T17:29:03.939Z,82.30
2018-06-25T17:31:42.659Z,82.20
2018-06-25T17:34:21.555Z,83.40
2018-06-25T17:37:03.954Z,83.80
2018-06-25T17:39:44.827Z,85.70
2018-06-25T17:42:25.253Z,86.20
2018-06-25T17:45:05.959Z,86.20
2018-06-25T17:47:45.654Z,86.60
2018-06-25T17:50:25.301Z,86.60
2018-06-25T17:53:06.929Z,87.40
2018-06-25T17:58:31.677Z,88.80
2018-06-25T18:01:10.929Z,89.40
2018-06-25T18:03:51.086Z,89.10
2018-06-25T18:06:29.869Z,89.20
2018-06-25T18:09:10.844Z,89.60
2018-06-25T18:11:50.964Z,90.40
2018-06-25T18:14:27.486Z,90.40
2018-06-25T18:17:05.623Z,90.60
2018-06-25T18:22:26.388Z,90.90
2018-06-25T18:25:06.391Z,91.10
2018-06-25T18:27:46.572Z,91.40
2018-06-25T18:30:28.501Z,91.20
2018-06-25T18:33:08.259Z,91.90
2018-06-25T18:35:45.847Z,91.40
2018-06-25T18:38:28.412Z,92.10
2018-06-25T18:41:09.753Z,91.90
2018-06-25T18:43:49.795Z,92.00
2018-06-25T18:46:25.118Z,92.00
2018-06-25T18:49:09.933Z,92.30
2018-06-25T18:51:48.067Z,92.20
2018-06-25T18:54:30.503Z,92.50
2018-06-25T18:57:09.995Z,92.30
2018-06-25T18:59:49.539Z,92.50
2018-06-25T19:02:31.152Z,92.70
2018-06-25T19:05:11.553Z,92.90
2018-06-25T19:07:53.578Z,93.00
2018-06-25T19:10:33.780Z,93.10
2018-06-25T19:13:12.759Z,93.30
2018-06-25T19:15:52.372Z,93.90
2018-06-25T19:18:32.516Z,93.60
2018-06-25T19:21:11.340Z,93.30
2018-06-25T19:23:50.662Z,93.50
2018-06-25T19:26:29.348Z,93.50
2018-06-25T19:29:08.759Z,93.60
2018-06-25T19:31:49.756Z,93.70
2018-06-25T19:34:29.776Z,94.00
2018-06-25T19:37:10.323Z,94.00
2018-06-25T19:39:51.539Z,94.00
2018-06-25T19:42:31.539Z,94.10
2018-06-25T19:45:12.684Z,94.20
2018-06-25T19:47:53.279Z,94.30
2018-06-25T19:50:35.939Z,94.50
2018-06-25T19:53:15.177Z,94.80
2018-06-25T19:55:56.111Z,94.90
2018-06-25T19:58:35.357Z,95.20
2018-06-25T20:01:15.767Z,95.20
2018-06-25T20:03:54.535Z,95.10
2018-06-25T20:06:33.220Z,95.50
2018-06-25T20:09:14.286Z,95.50
2018-06-25T20:11:55.388Z,95.70
2018-06-25T20:14:36.527Z,95.80
2018-06-25T20:17:15.283Z,96.10
2018-06-25T20:19:56.127Z,96.00
2018-06-25T20:22:36.238Z,96.40
2018-06-25T20:25:17.408Z,96.20
2018-06-25T20:27:55.644Z,95.90
2018-06-25T20:30:35.414Z,96.00
2018-06-25T20:33:15.052Z,96.50
2018-06-25T20:35:55.790Z,96.50
2018-06-25T20:38:33.920Z,96.50
2018-06-25T20:41:11.205Z,96.50
2018-06-25T20:43:53.719Z,96.50
2018-06-25T20:46:34.572Z,96.80
2018-06-25T20:49:15.061Z,96.40
2018-06-25T20:51:56.157Z,96.60
2018-06-25T20:54:36.517Z,96.80
2018-06-25T20:57:15.875Z,96.80
2018-06-25T20:59:43.969Z,96.80
2018-06-25T21:02:11.880Z,96.70
2018-06-25T21:04:38.894Z,96.90
2018-06-25T21:07:06.681Z,96.90
2018-06-25T21:09:33.917Z,96.90
2018-06-25T21:12:14.602Z,96.90
2018-06-25T21:14:56.740Z,96.90
2018-06-25T21:17:24.637Z,96.90
2018-06-25T21:20:05.219Z,97.20
2018-06-25T21:22:32.970Z,97.10
2018-06-25T21:25:10.623Z,97.00
2018-06-25T21:27:37.507Z,97.10
2018-06-25T21:30:08.005Z,97.60
2018-06-25T21:32:37.672Z,97.60
2018-06-25T21:35:04.637Z,97.80
2018-06-25T21:37:38.326Z,98.50
2018-06-25T21:40:14.360Z,98.50
2018-06-25T21:42:42.126Z,98.60
2018-06-25T21:45:09.153Z,99.00
2018-06-25T21:47:37.702Z,99.60
2018-06-25T21:50:05.654Z,99.50
2018-06-25T21:52:34.438Z,99.70
2018-06-25T21:55:08.937Z,99.90
2018-06-25T21:57:41.560Z,99.90
2018-06-25T22:00:08.565Z,99.90
2018-06-25T22:02:37.893Z,99.90
2018-06-25T22:05:08.388Z,99.90
2018-06-25T22:07:35.271Z,99.90
2018-06-25T22:10:03.069Z,99.90
2018-06-25T22:12:30.045Z,99.90
2018-06-25T22:15:00.449Z,99.90
2018-06-25T22:17:29.930Z,99.90
2018-06-25T22:19:56.848Z,99.90
2018-06-25T22:22:23.693Z,99.90
2018-06-25T22:24:50.689Z,99.90
2018-06-25T22:27:17.644Z,99.90
2018-06-25T22:29:44.580Z,99.90
2018-06-25T22:32:11.557Z,99.90
2018-06-25T22:34:38.584Z,99.90
2018-06-25T22:37:05.424Z,99.90
2018-06-25T22:39:32.529Z,99.90
2018-06-25T22:41:59.649Z,99.90
2018-06-25T22:44:26.520Z,99.90
2018-06-25T22:46:53.512Z,99.90
2018-06-25T22:49:20.430Z,99.90
2018-06-25T22:51:48.082Z,99.90
2018-06-25T22:54:15.782Z,99.90
2018-06-25T22:56:42.709Z,99.90
2018-06-25T22:59:10.404Z,99.90
2018-06-25T23:01:37.317Z,99.90
2018-06-25T23:04:05.044Z,99.90
2018-06-25T23:06:31.912Z,99.90
2018-06-25T23:08:58.836Z,99.90
2018-06-25T23:11:25.813Z,99.90
2018-06-25T23:13:53.427Z,99.90
2018-06-25T23:16:20.375Z,99.90
2018-06-25T23:18:47.321Z,99.90
2018-06-25T23:21:14.229Z,99.90
2018-06-25T23:23:41.161Z,99.90
2018-06-25T23:26:08.893Z,99.90
2018-06-25T23:28:35.753Z,99.90
2018-06-25T23:31:02.675Z,99.90
2018-06-25T23:33:29.601Z,99.90
2018-06-25T23:35:56.571Z,99.90
2018-06-25T23:38:23.500Z,99.90
2018-06-25T23:40:50.393Z,99.90
2018-06-25T23:43:18.062Z,99.90
2018-06-25T23:45:45.679Z,99.90
2018-06-25T23:48:12.620Z,99.90
2018-06-25T23:50:39.501Z,99.90
2018-06-25T23:53:06.474Z,99.90
2018-06-25T23:55:33.436Z,99.90
2018-06-25T23:58:00.373Z,99.90
